Time;durP1;ratioP1;P1;durP2;ratioP2;P2;SDS_P1;SDS_P2;PMS_P1;PMS_P2;Temp;Humidity;BMP_temperature;BMP_pressure;BME280_temperature;BME280_humidity;BME280_pressure;Samples;Min_cycle;Max_cycle;Signal;HPM_P1;HPM_P2
2022/05/22 00:02:02;;;;;;;3.60;3.30;;;18.30;45.40;;;;;;20489;6843;337821;-69
2022/05/22 00:04:27;;;;;;;3.87;3.57;;;18.60;44.60;;;;;;20757;6843;117569;-70
2022/05/22 00:06:53;;;;;;;3.90;3.50;;;18.70;44.70;;;;;;20546;6843;307959;-69
2022/05/22 00:09:18;;;;;;;3.87;3.50;;;18.80;44.50;;;;;;20767;6843;117834;-68
2022/05/22 00:11:44;;;;;;;3.43;3.03;;;18.70;44.50;;;;;;20547;6843;309098;-70
2022/05/22 00:14:11;;;;;;;3.20;3.00;;;18.80;44.60;;;;;;20741;6843;119189;-69
2022/05/22 00:16:41;;;;;;;3.40;3.20;;;18.70;44.60;;;;;;20539;6843;308360;-69
2022/05/22 00:19:04;;;;;;;3.60;3.30;;;18.80;44.60;;;;;;20523;6843;277947;-69
2022/05/22 00:21:29;;;;;;;3.72;3.47;;;19.00;44.30;;;;;;20547;6843;278602;-68
2022/05/22 00:23:55;;;;;;;3.73;3.00;;;19.10;44.10;;;;;;20741;6843;117834;-70
2022/05/22 00:26:20;;;;;;;3.83;2.77;;;18.80;44.20;;;;;;20759;6843;117954;-69
2022/05/22 00:28:46;;;;;;;3.00;2.80;;;18.50;44.80;;;;;;20539;6843;308463;-70
2022/05/22 00:31:11;;;;;;;3.10;2.90;;;18.50;44.50;;;;;;20552;6843;310498;-69
2022/05/22 00:33:38;;;;;;;3.80;3.50;;;18.90;43.90;;;;;;20548;6843;278996;-69
2022/05/22 00:36:04;;;;;;;2.90;2.70;;;18.90;43.80;;;;;;20740;6843;119814;-69
2022/05/22 00:38:30;;;;;;;2.87;2.67;;;18.30;44.50;;;;;;20762;6843;117481;-69
2022/05/22 00:40:55;;;;;;;2.47;2.37;;;18.30;44.50;;;;;;20753;6843;117874;-69
2022/05/22 00:43:27;;;;;;;3.33;2.77;;;18.00;44.90;;;;;;20550;6842;310564;-69
2022/05/22 00:45:53;;;;;;;3.07;2.87;;;18.20;45.40;;;;;;20531;6843;278044;-72
2022/05/22 00:48:19;;;;;;;2.93;2.73;;;18.50;45.00;;;;;;20546;6843;308883;-69
2022/05/22 00:50:44;;;;;;;2.67;2.42;;;18.70;44.70;;;;;;20762;6843;117837;-68
2022/05/22 00:53:10;;;;;;;2.53;2.30;;;18.40;44.70;;;;;;20765;6843;118268;-69
2022/05/22 00:55:35;;;;;;;2.85;2.65;;;18.00;45.30;;;;;;20555;6843;279499;-69
2022/05/22 00:58:01;;;;;;;3.30;3.00;;;18.00;45.80;;;;;;20740;6843;121934;-68
2022/05/22 01:00:27;;;;;;;2.90;2.70;;;18.00;46.00;;;;;;20527;6843;279909;-69
2022/05/22 01:05:38;;;;;;;3.33;2.80;;;18.20;45.50;;;;;;20531;6843;338480;-69
2022/05/22 01:08:04;;;;;;;3.10;2.80;;;18.40;45.10;;;;;;20519;6843;308826;-69
2022/05/22 01:10:33;;;;;;;2.70;2.60;;;18.20;45.20;;;;;;20738;6843;117999;-69
2022/05/22 01:12:59;;;;;;;3.12;2.83;;;18.10;45.20;;;;;;20521;6843;310761;-68
2022/05/22 01:15:25;;;;;;;2.50;2.30;;;18.10;45.20;;;;;;20740;6843;117443;-69
2022/05/22 01:17:51;;;;;;;2.33;2.20;;;17.90;45.80;;;;;;20746;6843;117896;-69
2022/05/22 01:20:16;;;;;;;3.00;2.90;;;17.60;45.80;;;;;;20511;6843;279081;-69
2022/05/22 01:22:42;;;;;;;3.03;2.77;;;17.80;46.00;;;;;;20743;6843;117734;-69
2022/05/22 01:25:07;;;;;;;3.00;2.87;;;17.70;45.90;;;;;;20742;6843;119418;-69
2022/05/22 01:27:33;;;;;;;3.13;2.90;;;17.50;46.10;;;;;;20539;6843;279094;-70
2022/05/22 01:30:05;;;;;;;2.97;2.78;;;17.70;46.40;;;;;;20521;6843;340324;-68
2022/05/22 01:32:34;;;;;;;2.83;2.63;;;18.10;45.70;;;;;;20746;6843;117465;-69
2022/05/22 01:35:00;;;;;;;2.97;2.70;;;17.90;45.60;;;;;;20745;6843;117354;-68
2022/05/22 01:37:25;;;;;;;5.55;2.95;;;17.60;46.00;;;;;;20751;6843;118456;-67
2022/05/22 01:39:52;;;;;;;2.93;2.70;;;17.40;46.40;;;;;;20530;6843;312374;-69
2022/05/22 01:42:16;;;;;;;2.97;2.77;;;17.60;46.60;;;;;;20725;6843;118303;-68
2022/05/22 01:44:42;;;;;;;2.62;2.42;;;17.60;46.40;;;;;;20752;6843;117895;-69
2022/05/22 01:47:07;;;;;;;3.10;2.90;;;17.30;46.30;;;;;;20538;6843;280142;-68
2022/05/22 01:49:33;;;;;;;3.40;3.10;;;17.50;46.20;;;;;;20531;6843;312189;-68
2022/05/22 01:51:59;;;;;;;2.97;2.78;;;17.80;45.70;;;;;;20726;6843;119515;-69
2022/05/22 01:54:25;;;;;;;3.22;2.72;;;17.40;46.00;;;;;;20760;6841;117916;-69
2022/05/22 01:56:51;;;;;;;3.28;3.08;;;17.50;46.30;;;;;;20546;6843;308023;-68
2022/05/22 01:59:17;;;;;;;3.00;2.80;;;17.40;46.10;;;;;;20755;6843;117324;-70
2022/05/22 02:01:42;;;;;;;3.70;3.05;;;17.30;46.10;;;;;;20741;6843;118737;-69
2022/05/22 02:04:08;;;;;;;3.67;3.40;;;17.00;46.30;;;;;;20739;6843;118201;-68
2022/05/22 02:06:33;;;;;;;3.30;3.10;;;16.80;46.70;;;;;;20536;6843;279870;-69
2022/05/22 02:08:59;;;;;;;3.50;3.20;;;17.00;46.90;;;;;;20536;6843;277716;-70
2022/05/22 02:11:25;;;;;;;3.10;2.90;;;17.20;46.20;;;;;;20739;6843;117416;-69
2022/05/22 02:13:51;;;;;;;3.42;3.22;;;17.20;46.20;;;;;;20537;6843;311945;-69
2022/05/22 02:16:16;;;;;;;3.00;2.80;;;17.30;46.20;;;;;;20515;6843;326832;-70
2022/05/22 02:18:42;;;;;;;3.17;2.97;;;17.60;45.90;;;;;;20523;6843;310665;-69
2022/05/22 02:21:08;;;;;;;2.50;2.40;;;17.60;45.70;;;;;;20739;6843;117930;-70
2022/05/22 02:23:34;;;;;;;2.60;2.50;;;17.50;45.60;;;;;;20746;6843;117536;-69
2022/05/22 02:25:59;;;;;;;2.83;2.63;;;17.20;46.00;;;;;;20722;6843;117965;-68
2022/05/22 02:28:25;;;;;;;3.00;2.80;;;16.90;46.30;;;;;;20529;6843;309102;-69
2022/05/22 02:30:51;;;;;;;3.10;2.90;;;17.40;45.70;;;;;;20524;6843;340215;-69
2022/05/22 02:33:17;;;;;;;3.37;2.70;;;17.40;45.70;;;;;;20739;6843;117883;-68
2022/05/22 02:35:42;;;;;;;4.33;2.40;;;17.20;45.80;;;;;;20744;6843;117440;-68
2022/05/22 02:38:10;;;;;;;2.70;2.50;;;17.00;46.30;;;;;;20515;6843;278814;-69
2022/05/22 02:40:34;;;;;;;2.93;2.70;;;17.10;46.60;;;;;;20524;6843;310923;-68
2022/05/22 02:43:00;;;;;;;3.90;2.63;;;17.70;46.50;;;;;;20535;6843;291277;-68
2022/05/22 02:45:25;;;;;;;3.00;2.77;;;17.70;45.80;;;;;;20539;6843;282237;-69
2022/05/22 02:47:51;;;;;;;2.83;2.63;;;17.90;45.40;;;;;;20527;6843;311498;-68
2022/05/22 02:50:17;;;;;;;2.78;2.58;;;18.10;45.20;;;;;;20500;6843;281811;-69
2022/05/22 02:52:42;;;;;;;2.70;2.50;;;18.20;44.90;;;;;;20531;6843;279582;-68
2022/05/22 02:55:08;;;;;;;2.80;2.60;;;18.30;44.50;;;;;;20748;6843;117398;-69
2022/05/22 02:57:33;;;;;;;2.90;2.70;;;18.00;44.80;;;;;;20537;6843;282118;-69
2022/05/22 03:00:00;;;;;;;2.78;2.58;;;17.70;45.00;;;;;;20722;6843;127691;-67
2022/05/22 03:02:25;;;;;;;2.30;2.17;;;17.70;45.00;;;;;;20753;6843;117582;-69
2022/05/22 03:04:51;;;;;;;3.17;2.87;;;17.30;45.50;;;;;;20535;6841;342682;-69
2022/05/22 03:07:16;;;;;;;2.70;2.50;;;17.40;45.70;;;;;;20546;6842;310281;-69
2022/05/22 03:09:43;;;;;;;2.63;2.43;;;17.40;45.30;;;;;;20747;6843;117355;-68
2022/05/22 03:12:09;;;;;;;2.80;2.60;;;17.40;45.30;;;;;;20513;6843;338012;-69
2022/05/22 03:14:34;;;;;;;2.73;2.53;;;17.40;45.30;;;;;;20533;6843;319253;-69
2022/05/22 03:17:01;;;;;;;3.47;2.40;;;17.30;45.50;;;;;;20749;6843;117723;-69
2022/05/22 03:19:26;;;;;;;3.03;2.87;;;17.30;45.50;;;;;;20738;6843;117793;-71
2022/05/22 03:21:52;;;;;;;2.90;2.70;;;17.00;46.00;;;;;;20531;6843;281972;-68
2022/05/22 03:24:17;;;;;;;2.43;2.33;;;17.10;46.10;;;;;;20730;6843;117684;-69
2022/05/22 03:26:43;;;;;;;3.00;2.70;;;17.00;46.20;;;;;;20532;6843;311960;-69
2022/05/22 03:29:08;;;;;;;2.50;2.30;;;17.10;46.50;;;;;;20750;6843;117386;-70
2022/05/22 03:31:34;;;;;;;2.80;2.60;;;16.90;46.40;;;;;;20530;6843;311760;-69
2022/05/22 03:34:00;;;;;;;2.40;2.30;;;17.20;46.40;;;;;;20520;6843;279412;-69
2022/05/22 03:36:26;;;;;;;2.40;2.30;;;17.10;46.30;;;;;;20751;6843;117629;-69
2022/05/22 03:38:51;;;;;;;2.70;2.50;;;17.00;46.50;;;;;;20537;6843;311768;-68
2022/05/22 03:41:17;;;;;;;2.55;2.37;;;17.00;46.50;;;;;;20745;6843;118555;-69
2022/05/22 03:43:42;;;;;;;3.53;2.70;;;16.70;46.60;;;;;;20744;6843;117405;-69
2022/05/22 03:46:08;;;;;;;3.03;2.78;;;16.40;47.00;;;;;;20732;6843;118740;-69
2022/05/22 03:48:34;;;;;;;3.10;2.80;;;16.10;47.40;;;;;;20539;6843;312183;-69
2022/05/22 03:50:59;;;;;;;2.60;2.40;;;16.20;47.40;;;;;;20751;6843;117422;-67
2022/05/22 03:53:25;;;;;;;2.87;2.67;;;16.20;47.50;;;;;;20753;6843;117344;-68
2022/05/22 03:55:51;;;;;;;3.07;2.87;;;16.10;47.70;;;;;;20535;6843;309655;-68
2022/05/22 03:58:17;;;;;;;2.60;2.50;;;16.10;47.70;;;;;;20737;6843;119621;-69
2022/05/22 04:00:43;;;;;;;2.83;2.72;;;16.10;47.70;;;;;;20537;6843;283333;-69
2022/05/22 04:03:08;;;;;;;3.10;2.83;;;16.30;47.60;;;;;;20541;6843;309190;-69
2022/05/22 04:05:33;;;;;;;2.83;2.62;;;16.50;47.00;;;;;;20539;6843;308464;-68
2022/05/22 04:08:00;;;;;;;2.70;2.50;;;16.60;47.00;;;;;;20735;6843;117460;-68
2022/05/22 04:10:25;;;;;;;2.50;2.40;;;16.50;46.90;;;;;;20743;6843;118118;-70
2022/05/22 04:12:51;;;;;;;2.67;2.47;;;16.30;47.50;;;;;;20747;6843;117443;-70
2022/05/22 04:15:18;;;;;;;2.75;2.55;;;16.00;48.50;;;;;;20751;6843;117367;-68
2022/05/22 04:17:42;;;;;;;2.90;2.80;;;15.90;48.00;;;;;;20525;6842;295031;-69
2022/05/22 04:20:08;;;;;;;3.10;2.90;;;16.10;48.00;;;;;;20730;6843;117731;-70
2022/05/22 04:25:10;;;;;;;2.90;2.80;;;16.20;47.80;;;;;;20531;6843;309072;-70
2022/05/22 04:25:12;;;;;;;2.60;2.50;;;16.40;47.30;;;;;;20687;6843;117297;-69
2022/05/22 04:27:39;;;;;;;2.70;2.50;;;16.40;47.90;;;;;;20741;6843;119687;-69
2022/05/22 04:30:05;;;;;;;3.00;2.80;;;16.30;47.50;;;;;;20505;6843;337381;-69
2022/05/22 04:32:31;;;;;;;2.40;2.30;;;16.40;47.40;;;;;;20742;6843;117543;-70
2022/05/22 04:34:57;;;;;;;2.80;2.60;;;16.20;47.60;;;;;;20747;6843;117409;-69
2022/05/22 04:37:23;;;;;;;2.90;2.70;;;16.20;47.60;;;;;;20532;6843;321650;-69
2022/05/22 04:39:48;;;;;;;3.33;3.03;;;16.40;47.50;;;;;;20532;6843;341512;-68
2022/05/22 04:42:14;;;;;;;3.25;2.37;;;16.80;47.00;;;;;;20729;6843;119563;-70
2022/05/22 04:44:39;;;;;;;3.33;3.13;;;16.70;46.90;;;;;;20536;6843;307176;-70
2022/05/22 04:47:05;;;;;;;3.00;2.80;;;16.80;46.80;;;;;;20754;6843;117912;-68
2022/05/22 04:49:30;;;;;;;3.10;2.80;;;16.70;46.90;;;;;;20538;6843;321011;-71
2022/05/22 04:51:56;;;;;;;2.80;2.60;;;16.80;47.10;;;;;;20726;6843;149355;-73
2022/05/22 04:54:22;;;;;;;2.33;2.23;;;16.70;47.20;;;;;;20750;6843;118106;-69
2022/05/22 04:56:47;;;;;;;2.50;2.40;;;16.50;47.70;;;;;;20982;6633;73853;-76
2022/05/22 04:59:23;;;;;;;2.50;2.40;;;16.40;48.00;;;;;;20939;6725;67990;-73
2022/05/22 05:01:58;;;;;;;2.73;2.50;;;16.30;48.20;;;;;;20826;6761;67358;-74
2022/05/22 05:04:34;;;;;;;2.67;2.53;;;16.30;48.40;;;;;;20956;6714;69360;-74
2022/05/22 05:07:10;;;;;;;3.05;2.50;;;16.60;48.00;;;;;;20596;6714;308047;-73
2022/05/22 05:09:46;;;;;;;2.60;2.30;;;16.60;48.00;;;;;;20829;6752;67196;-74
2022/05/22 05:12:21;;;;;;;2.80;2.60;;;16.70;47.70;;;;;;20876;6743;71752;-76
2022/05/22 05:14:57;;;;;;;3.30;3.00;;;16.60;47.80;;;;;;20661;6739;277143;-76
2022/05/22 05:17:33;;;;;;;3.00;2.80;;;16.90;47.30;;;;;;20517;6742;298076;-75
2022/05/22 05:20:08;;;;;;;2.67;2.47;;;17.30;46.70;;;;;;20884;6737;67349;-78
2022/05/22 05:22:48;;;;;;;3.10;2.90;;;17.30;47.10;;;;;;20657;6740;307328;-75
2022/05/22 05:25:20;;;;;;;2.90;2.70;;;17.30;47.10;;;;;;20663;6737;305849;-76
2022/05/22 05:27:57;;;;;;;3.17;2.97;;;17.50;46.80;;;;;;20463;6793;304809;-75
2022/05/22 05:30:33;;;;;;;2.63;2.50;;;17.70;46.60;;;;;;20929;6723;116918;-75
2022/05/22 05:33:09;;;;;;;2.80;2.70;;;17.50;46.90;;;;;;20864;6738;116974;-75
2022/05/22 05:35:44;;;;;;;3.22;2.80;;;17.20;47.60;;;;;;20581;6746;306249;-73
2022/05/22 05:38:20;;;;;;;2.93;2.80;;;17.40;48.00;;;;;;20665;6731;277248;-73
2022/05/22 05:40:55;;;;;;;4.10;2.87;;;17.70;47.40;;;;;;20592;6760;307178;-74
2022/05/22 05:43:31;;;;;;;2.40;2.30;;;18.00;46.80;;;;;;20789;6760;117193;-74
2022/05/22 05:46:06;;;;;;;2.70;2.50;;;17.90;46.90;;;;;;20534;6760;308459;-75
2022/05/22 05:48:42;;;;;;;2.70;2.43;;;18.00;47.00;;;;;;20799;6765;118219;-74
2022/05/22 05:51:17;;;;;;;2.80;2.60;;;18.00;47.20;;;;;;20572;6767;311879;-74
2022/05/22 05:53:53;;;;;;;2.60;2.40;;;18.20;47.40;;;;;;20661;6735;308624;-77
2022/05/22 05:56:29;;;;;;;2.33;2.10;;;18.60;46.70;;;;;;20801;6737;117955;-76
2022/05/22 05:59:04;;;;;;;2.67;2.50;;;18.50;46.70;;;;;;20674;6736;280863;-75
2022/05/22 06:01:41;;;;;;;2.77;2.57;;;18.70;47.70;;;;;;20883;6750;117126;-76
2022/05/22 06:04:16;;;;;;;2.57;2.40;;;18.70;46.90;;;;;;20868;6750;117380;-77
2022/05/22 06:06:52;;;;;;;2.50;2.40;;;18.50;47.20;;;;;;20734;6766;117169;-76
2022/05/22 06:09:28;;;;;;;2.93;2.53;;;18.60;47.80;;;;;;20823;6757;121372;-77
2022/05/22 06:12:04;;;;;;;2.53;2.43;;;18.60;47.80;;;;;;20653;6738;281455;-76
2022/05/22 06:14:40;;;;;;;2.70;2.50;;;19.10;46.90;;;;;;20672;6738;277177;-77
2022/05/22 06:17:17;;;;;;;2.87;2.53;;;20.20;45.80;;;;;;20505;6752;322949;-77
2022/05/22 06:20:03;;;;;;;2.90;2.60;;;20.20;45.80;;;;;;20919;6726;117034;-80
2022/05/22 06:22:33;;;;;;;2.40;2.30;;;20.40;45.70;;;;;;20920;6726;117124;-77
2022/05/22 06:25:08;;;;;;;2.50;2.30;;;20.40;45.90;;;;;;20896;6788;117016;-76
2022/05/22 06:27:43;;;;;;;2.40;2.30;;;20.70;46.60;;;;;;20738;6727;123115;-77
2022/05/22 06:30:20;;;;;;;2.60;2.40;;;21.10;46.50;;;;;;20672;6738;305902;-77
2022/05/22 06:32:54;;;;;;;2.10;2.00;;;21.90;43.10;;;;;;20940;6738;74422;-77
2022/05/22 06:35:30;;;;;;;2.80;2.00;;;22.40;43.40;;;;;;20943;6738;68008;-77
2022/05/22 06:38:06;;;;;;;2.50;2.30;;;22.70;43.70;;;;;;20723;6742;280548;-77
2022/05/22 06:40:41;;;;;;;4.03;2.35;;;23.50;41.70;;;;;;20720;6742;334919;-76
2022/05/22 06:43:17;;;;;;;2.53;2.37;;;24.50;40.30;;;;;;20923;6783;66700;-77
2022/05/22 06:45:52;;;;;;;2.17;2.00;;;24.80;40.20;;;;;;20911;6741;66824;-80
2022/05/22 06:48:28;;;;;;;2.53;2.20;;;24.90;40.00;;;;;;20743;6738;306460;-77
2022/05/22 06:51:04;;;;;;;2.28;2.08;;;26.00;36.20;;;;;;20731;6738;335471;-76
2022/05/22 06:53:40;;;;;;;2.73;2.20;;;26.00;36.10;;;;;;20797;6766;67444;-75
2022/05/22 06:56:15;;;;;;;2.13;2.03;;;26.10;36.30;;;;;;20854;6735;66795;-74
2022/05/22 06:58:51;;;;;;;2.50;2.30;;;26.00;36.50;;;;;;20708;6723;310373;-76
2022/05/22 07:01:29;;;;;;;1.80;1.70;;;26.30;34.40;;;;;;20894;6732;116985;-76
2022/05/22 07:04:05;;;;;;;2.17;2.07;;;26.40;35.00;;;;;;20877;6732;117943;-74
2022/05/22 07:06:40;;;;;;;2.10;2.00;;;26.30;35.20;;;;;;20798;6732;117752;-74
2022/05/22 07:09:16;;;;;;;2.03;1.93;;;26.10;35.40;;;;;;20686;6732;290497;-74
2022/05/22 07:11:56;;;;;;;2.15;1.95;;;26.50;32.60;;;;;;20675;6732;309913;-74
2022/05/22 07:14:32;;;;;;;2.17;1.93;;;26.50;32.60;;;;;;20909;6732;122935;-77
2022/05/22 07:17:07;;;;;;;2.30;1.97;;;26.20;33.50;;;;;;20505;6747;295572;-74
2022/05/22 07:19:43;;;;;;;2.73;2.27;;;26.20;33.50;;;;;;20834;6751;117023;-75
2022/05/22 07:22:18;;;;;;;2.10;2.00;;;25.90;34.20;;;;;;20849;6738;122457;-74
2022/05/22 07:24:55;;;;;;;2.40;2.20;;;25.60;34.80;;;;;;20702;6723;309197;-74
2022/05/22 07:27:30;;;;;;;2.77;2.03;;;25.60;34.70;;;;;;20698;6733;117860;-74
2022/05/22 07:30:07;;;;;;;2.27;1.93;;;25.40;35.00;;;;;;20875;6733;117027;-82
2022/05/22 07:32:44;;;;;;;2.10;2.00;;;25.00;35.70;;;;;;20897;6733;117546;-78
2022/05/22 07:35:19;;;;;;;2.03;1.93;;;25.00;35.70;;;;;;20655;6738;306223;-73
2022/05/22 07:37:56;;;;;;;2.30;2.20;;;25.70;35.30;;;;;;20518;6780;310853;-73
2022/05/22 07:40:31;;;;;;;2.43;2.10;;;25.60;34.90;;;;;;20714;6723;294959;-72
2022/05/22 07:43:07;;;;;;;2.30;2.10;;;26.00;34.50;;;;;;20877;6738;117456;-73
2022/05/22 07:45:43;;;;;;;2.40;2.20;;;26.00;36.60;;;;;;20609;6747;298968;-72
2022/05/22 07:48:19;;;;;;;2.73;2.50;;;25.90;36.60;;;;;;20606;6751;306659;-72
2022/05/22 07:50:57;;;;;;;5.50;2.70;;;26.20;36.10;;;;;;20875;6738;117470;-72
2022/05/22 07:53:33;;;;;;;2.43;2.23;;;26.10;36.00;;;;;;20784;6766;117902;-72
2022/05/22 07:56:08;;;;;;;2.33;2.23;;;25.90;36.70;;;;;;20455;6780;284209;-72
2022/05/22 07:58:44;;;;;;;2.70;2.50;;;26.00;36.60;;;;;;20603;6758;305898;-73
2022/05/22 08:01:20;;;;;;;2.50;2.30;;;26.30;35.20;;;;;;20882;6735;116884;-73
2022/05/22 08:03:55;;;;;;;2.50;2.30;;;26.20;35.60;;;;;;20557;6767;312088;-72
2022/05/22 08:06:31;;;;;;;2.53;2.33;;;26.30;36.20;;;;;;20544;6753;309145;-72
2022/05/22 08:09:06;;;;;;;2.73;2.43;;;26.50;36.10;;;;;;20625;6747;277143;-72
2022/05/22 08:11:42;;;;;;;2.60;2.40;;;26.80;35.90;;;;;;20664;6736;307272;-72
2022/05/22 08:14:18;;;;;;;2.58;2.17;;;27.00;34.20;;;;;;20657;6736;279805;-72
2022/05/22 08:16:54;;;;;;;2.30;2.10;;;27.20;34.90;;;;;;20536;6752;311714;-72
2022/05/22 08:19:30;;;;;;;2.10;2.00;;;27.30;34.80;;;;;;20895;6732;119044;-71
2022/05/22 08:22:06;;;;;;;2.33;2.10;;;27.00;36.10;;;;;;20879;6732;118489;-75
2022/05/22 08:24:42;;;;;;;2.03;1.93;;;26.90;35.50;;;;;;20599;6759;306394;-74
2022/05/22 08:27:17;;;;;;;2.37;2.20;;;27.20;35.20;;;;;;20407;6780;281012;-76
2022/05/22 08:29:53;;;;;;;2.40;2.20;;;27.50;34.80;;;;;;20600;6758;307296;-76
2022/05/22 08:32:29;;;;;;;2.50;2.12;;;27.80;34.30;;;;;;20561;6771;335770;-76
2022/05/22 08:35:04;;;;;;;2.13;2.00;;;28.00;33.70;;;;;;20810;6760;117136;-80
2022/05/22 08:37:40;;;;;;;3.00;1.90;;;27.80;34.20;;;;;;20475;6745;283614;-79
2022/05/22 08:40:16;;;;;;;2.63;2.00;;;27.80;33.50;;;;;;20824;6740;117405;-78
2022/05/22 08:42:54;;;;;;;2.17;1.67;;;27.70;33.70;;;;;;20832;6745;117736;-77
2022/05/22 08:45:30;;;;;;;1.90;1.80;;;27.50;34.60;;;;;;20797;6758;117728;-77
2022/05/22 08:48:15;;;;;;;2.00;1.90;;;27.40;34.90;;;;;;20853;6740;117556;-76
2022/05/22 08:50:51;;;;;;;1.90;1.80;;;27.40;34.80;;;;;;20700;6781;334458;-77
2022/05/22 08:53:33;;;;;;;2.17;2.07;;;27.70;33.70;;;;;;20791;6767;117179;-76
2022/05/22 08:59:20;;;;;;;2.60;1.70;;;28.10;33.60;;;;;;20869;6738;117131;-75
2022/05/22 09:02:14;;;;;;;1.90;1.80;;;28.20;32.50;;;;;;20639;6738;308921;-75
2022/05/22 09:04:49;;;;;;;2.33;2.12;;;28.20;32.30;;;;;;20612;6755;311747;-77
2022/05/22 09:07:24;;;;;;;2.50;2.10;;;28.50;31.60;;;;;;20646;6765;123848;-75
2022/05/22 09:10:13;;;;;;;2.17;1.80;;;28.40;31.90;;;;;;20825;6749;118101;-77
2022/05/22 09:12:59;;;;;;;1.87;1.77;;;28.40;32.20;;;;;;20632;6750;283690;-75
2022/05/22 09:15:42;;;;;;;2.40;1.83;;;28.80;31.40;;;;;;20655;6738;306738;-75
2022/05/22 09:18:25;;;;;;;4.60;1.60;;;28.80;30.20;;;;;;20911;6723;117249;-76
2022/05/22 09:21:13;;;;;;;2.92;1.70;;;28.80;30.70;;;;;;20624;6750;336727;-75
2022/05/22 09:24:05;;;;;;;1.50;1.40;;;28.90;30.10;;;;;;20100;6804;118930;-76
2022/05/22 09:27:14;;;;;;;1.63;1.53;;;28.80;30.80;;;;;;20730;6748;117498;-77
2022/05/22 09:30:02;;;;;;;2.07;1.50;;;28.40;30.60;;;;;;20853;6733;120771;-78
2022/05/22 09:32:52;;;;;;;1.43;1.33;;;28.40;30.50;;;;;;20900;6733;117359;-75
2022/05/22 09:35:38;;;;;;;1.60;1.50;;;28.30;31.10;;;;;;20687;6733;313547;-74
2022/05/22 09:38:36;;;;;;;1.63;1.50;;;28.40;31.20;;;;;;20871;6748;119249;-74
2022/05/22 09:41:31;;;;;;;1.93;1.40;;;28.40;31.60;;;;;;20889;6748;117133;-77
2022/05/22 09:44:33;;;;;;;1.60;1.50;;;28.30;31.50;;;;;;20875;6751;117526;-77
2022/05/22 09:47:29;;;;;;;1.50;1.40;;;28.20;31.50;;;;;;20671;6766;117585;-79
2022/05/22 09:50:21;;;;;;;1.70;1.40;;;28.30;32.40;;;;;;20558;6818;307077;-79
2022/05/22 09:53:10;;;;;;;2.03;1.60;;;28.70;29.90;;;;;;20686;6734;341087;-74
2022/05/22 09:55:45;;;;;;;1.30;1.20;;;29.00;29.70;;;;;;20655;6790;280652;-79
2022/05/22 09:58:32;;;;;;;2.33;1.37;;;29.50;29.60;;;;;;20669;6735;310345;-74
2022/05/22 10:01:07;;;;;;;1.67;1.10;;;29.50;29.60;;;;;;20655;6747;306605;-75
2022/05/22 10:04:12;;;;;;;1.33;1.23;;;29.60;30.30;;;;;;20674;6740;300900;-75
2022/05/22 10:07:01;;;;;;;1.20;1.10;;;29.70;29.60;;;;;;20714;6742;117146;-74
2022/05/22 10:09:53;;;;;;;1.23;1.10;;;29.60;29.70;;;;;;20837;6752;117929;-75
2022/05/22 10:12:53;;;;;;;1.77;1.67;;;29.00;30.60;;;;;;20789;6767;118191;-76
2022/05/22 10:15:29;;;;;;;1.23;1.17;;;28.90;29.90;;;;;;20846;6748;117242;-76
2022/05/22 10:18:24;;;;;;;2.00;1.47;;;28.80;30.00;;;;;;20772;6767;123818;-79
2022/05/22 10:21:29;;;;;;;1.40;1.30;;;28.80;30.20;;;;;;20583;6765;307820;-75
2022/05/22 10:24:41;;;;;;;1.40;1.30;;;29.20;30.00;;;;;;20821;6750;117396;-81
2022/05/22 10:27:33;;;;;;;2.50;1.20;;;29.40;29.60;;;;;;20704;6744;117476;-77
2022/05/22 10:30:18;;;;;;;1.10;1.10;;;29.20;29.40;;;;;;20868;6734;117636;-77
2022/05/22 10:33:00;;;;;;;1.47;1.30;;;28.90;29.10;;;;;;20796;6761;118463;-76
2022/05/22 10:35:59;;;;;;;1.30;1.20;;;28.70;29.10;;;;;;20554;6776;305301;-73
2022/05/22 10:38:35;;;;;;;1.13;1.10;;;28.90;27.10;;;;;;20789;6765;117443;-74
2022/05/22 10:44:06;;;;;;;1.47;1.37;;;28.90;28.90;;;;;;20541;6763;308074;-75
2022/05/22 10:46:52;;;;;;;1.33;0.90;;;29.20;28.80;;;;;;20533;6750;309346;-78
2022/05/22 10:49:44;;;;;;;1.40;1.17;;;29.40;26.40;;;;;;20613;6762;284956;-77
2022/05/22 10:52:24;;;;;;;0.90;0.90;;;29.70;26.70;;;;;;20434;6850;122131;-77
2022/05/22 10:55:07;;;;;;;1.13;1.00;;;29.60;26.90;;;;;;20544;6777;306615;-80
2022/05/22 10:57:34;;;;;;;1.52;1.05;;;29.60;25.90;;;;;;20464;6765;307740;-80
2022/05/22 11:00:14;;;;;;;1.80;1.25;;;29.80;27.00;;;;;;20609;6748;330916;-80
2022/05/22 11:02:49;;;;;;;1.20;1.10;;;29.90;26.60;;;;;;20700;6803;118390;-81
2022/05/22 11:05:25;;;;;;;1.10;1.00;;;29.70;26.70;;;;;;20726;6776;117504;-76
2022/05/22 11:08:01;;;;;;;1.60;1.23;;;29.50;28.20;;;;;;20523;6777;278244;-76
2022/05/22 11:10:40;;;;;;;1.67;1.58;;;29.50;28.10;;;;;;20547;6773;315316;-75
2022/05/22 11:13:19;;;;;;;1.40;1.30;;;29.70;28.30;;;;;;20768;6771;117337;-76
2022/05/22 11:15:56;;;;;;;1.47;1.00;;;29.60;27.70;;;;;;20726;6769;127134;-81
2022/05/22 11:18:32;;;;;;;1.20;1.10;;;29.30;27.70;;;;;;20799;6759;118362;-76
2022/05/22 11:21:27;;;;;;;0.73;0.73;;;29.10;28.10;;;;;;20859;6745;117844;-71
2022/05/22 11:24:23;;;;;;;1.25;1.15;;;28.90;28.10;;;;;;20622;6745;319864;-73
2022/05/22 11:27:29;;;;;;;0.90;0.90;;;29.20;27.20;;;;;;20546;6745;279390;-74
2022/05/22 11:30:07;;;;;;;1.20;1.17;;;29.50;26.60;;;;;;20531;6768;306327;-73
2022/05/22 11:33:03;;;;;;;1.20;1.10;;;29.80;27.20;;;;;;20753;6780;117147;-73
2022/05/22 11:36:02;;;;;;;0.90;0.90;;;29.80;27.40;;;;;;20721;6779;117093;-73
2022/05/22 11:38:38;;;;;;;1.07;1.00;;;29.60;27.30;;;;;;20551;6775;306764;-74
2022/05/22 11:41:17;;;;;;;1.37;1.27;;;29.70;25.70;;;;;;20797;6765;117136;-77
2022/05/22 11:44:19;;;;;;;1.50;1.10;;;29.80;25.90;;;;;;20521;6785;308276;-72
2022/05/22 11:47:17;;;;;;;1.20;1.10;;;29.90;26.20;;;;;;20745;6754;117639;-72
2022/05/22 11:50:06;;;;;;;1.27;1.17;;;29.70;26.40;;;;;;20653;6744;282308;-74
2022/05/22 11:53:05;;;;;;;1.02;1.00;;;29.70;26.00;;;;;;20084;6793;277766;-76
2022/05/22 11:55:58;;;;;;;0.90;0.90;;;30.00;26.30;;;;;;20639;6736;309994;-76
2022/05/22 11:58:51;;;;;;;0.93;0.93;;;30.00;26.20;;;;;;20834;6751;119753;-70
2022/05/22 12:01:36;;;;;;;1.00;1.00;;;29.80;26.60;;;;;;20419;6804;118994;-73
2022/05/22 12:04:32;;;;;;;2.20;0.90;;;29.50;27.50;;;;;;20812;6804;120034;-71
2022/05/22 12:07:31;;;;;;;1.03;1.03;;;29.30;27.90;;;;;;20533;6746;307812;-72
2022/05/22 12:10:09;;;;;;;1.40;1.30;;;29.40;26.30;;;;;;20615;6746;306313;-75
2022/05/22 12:12:55;;;;;;;1.58;1.15;;;29.60;26.60;;;;;;20591;6761;336615;-71
2022/05/22 12:15:54;;;;;;;1.52;1.30;;;29.70;27.30;;;;;;20597;6761;310073;-71
2022/05/22 12:19:09;;;;;;;1.33;1.23;;;29.80;26.80;;;;;;20846;6746;118451;-72
2022/05/22 12:22:02;;;;;;;1.02;1.02;;;29.50;26.70;;;;;;20634;6746;336110;-72
2022/05/22 12:24:40;;;;;;;1.77;1.23;;;29.40;26.40;;;;;;20856;6746;117604;-71
2022/05/22 12:27:29;;;;;;;2.33;2.23;;;29.20;26.70;;;;;;20497;6746;309164;-72
2022/05/22 12:30:23;;;;;;;1.20;1.10;;;29.20;26.80;;;;;;20857;6739;117447;-74
2022/05/22 12:33:09;;;;;;;1.10;1.00;;;29.20;26.70;;;;;;20869;6742;119970;-71
2022/05/22 12:35:43;;;;;;;1.45;1.23;;;29.00;27.20;;;;;;20634;6742;282656;-71
2022/05/22 12:38:19;;;;;;;1.23;1.23;;;29.30;26.40;;;;;;20619;6746;336500;-72
2022/05/22 12:41:08;;;;;;;2.53;1.37;;;29.30;26.50;;;;;;20690;6734;279589;-71
2022/05/22 12:43:44;;;;;;;3.00;1.30;;;29.40;26.60;;;;;;20686;6734;277268;-75
2022/05/22 12:46:20;;;;;;;1.43;1.20;;;29.70;26.30;;;;;;20519;6764;282296;-73
2022/05/22 12:49:23;;;;;;;1.33;1.30;;;29.70;26.30;;;;;;20835;6749;117058;-73
2022/05/22 12:52:03;;;;;;;1.93;1.13;;;29.50;26.40;;;;;;20833;6744;116931;-75
2022/05/22 12:54:40;;;;;;;2.37;2.27;;;29.20;27.10;;;;;;20792;6766;121065;-75
2022/05/22 12:57:17;;;;;;;1.40;1.20;;;29.00;27.00;;;;;;20727;6749;117982;-79
2022/05/22 12:59:55;;;;;;;1.33;1.23;;;28.80;27.50;;;;;;20830;6755;117631;-72
2022/05/22 13:02:37;;;;;;;1.23;1.13;;;28.80;28.00;;;;;;20793;6768;117840;-72
2022/05/22 13:05:26;;;;;;;1.62;1.20;;;28.70;28.10;;;;;;20605;6755;337467;-70
2022/05/22 13:08:03;;;;;;;1.23;1.13;;;29.00;27.20;;;;;;20794;6754;118296;-70
2022/05/22 13:10:44;;;;;;;1.37;1.27;;;29.00;27.20;;;;;;20562;6768;278754;-70
2022/05/22 13:13:27;;;;;;;1.40;1.30;;;29.00;28.10;;;;;;20627;6753;278880;-71
2022/05/22 13:16:04;;;;;;;2.62;1.20;;;29.20;27.30;;;;;;20521;6766;311058;-72
2022/05/22 13:18:47;;;;;;;1.30;1.10;;;29.40;27.10;;;;;;20610;6749;335718;-71
2022/05/22 13:21:29;;;;;;;1.30;1.20;;;29.40;26.80;;;;;;20602;6761;277237;-72
2022/05/22 13:24:08;;;;;;;1.67;1.10;;;29.40;26.50;;;;;;20480;6787;301801;-75
2022/05/22 13:27:11;;;;;;;1.57;1.10;;;29.20;27.00;;;;;;20622;6833;117568;-72
2022/05/22 13:29:44;;;;;;;1.10;1.00;;;29.20;27.00;;;;;;20864;6736;117472;-71